createdAt,value
2018-11-04T00:00:47.820Z,11.03
2018-11-04T00:03:18.145Z,11.09
2018-11-04T00:05:48.193Z,11.19
2018-11-04T00:08:18.457Z,11.07
2018-11-04T00:10:48.913Z,11.02
2018-11-04T00:13:19.591Z,11.01
2018-11-04T00:15:50.249Z,11.00
2018-11-04T00:18:20.649Z,11.03
2018-11-04T00:20:51.052Z,10.96
2018-11-04T00:23:22.123Z,10.91
2018-11-04T00:25:52.514Z,10.90
2018-11-04T00:28:22.988Z,10.96
2018-11-04T00:30:53.374Z,10.95
2018-11-04T00:33:23.907Z,10.95
2018-11-04T00:35:54.150Z,10.99
2018-11-04T00:38:24.547Z,10.94
2018-11-04T00:40:55.029Z,10.88
2018-11-04T00:43:25.349Z,10.94
2018-11-04T00:45:56.113Z,10.81
2018-11-04T00:48:26.715Z,10.96
2018-11-04T00:50:57.121Z,10.96
2018-11-04T00:53:27.373Z,10.96
2018-11-04T00:55:57.550Z,10.98
2018-11-04T00:58:28.161Z,10.95
2018-11-04T01:00:58.426Z,10.92
2018-11-04T01:03:28.280Z,10.95
2018-11-04T01:05:58.682Z,10.88
2018-11-04T01:08:29.179Z,10.94
2018-11-04T01:10:59.846Z,10.99
2018-11-04T01:13:30.635Z,10.93
2018-11-04T01:16:00.675Z,10.95
2018-11-04T01:18:31.475Z,10.96
2018-11-04T01:21:03.362Z,10.92
2018-11-04T01:23:33.828Z,10.97
2018-11-04T01:26:06.258Z,10.97
2018-11-04T01:28:36.421Z,10.96
2018-11-04T01:31:06.437Z,10.92
2018-11-04T01:33:36.526Z,10.99
2018-11-04T01:36:06.840Z,10.94
2018-11-04T01:38:36.883Z,10.94
2018-11-04T01:41:07.349Z,11.01
2018-11-04T01:43:37.588Z,11.04
2018-11-04T01:46:07.870Z,11.05
2018-11-04T01:48:37.997Z,11.02
2018-11-04T01:51:08.055Z,10.95
2018-11-04T01:53:37.990Z,10.92
2018-11-04T01:56:08.511Z,10.95
2018-11-04T01:58:38.839Z,10.92
2018-11-04T02:01:08.987Z,10.96
2018-11-04T02:03:39.141Z,10.96
2018-11-04T02:06:09.108Z,10.92
2018-11-04T02:08:39.021Z,10.93
2018-11-04T02:11:08.881Z,11.00
2018-11-04T02:13:38.601Z,10.92
2018-11-04T02:16:08.792Z,10.88
2018-11-04T02:18:38.667Z,10.94
2018-11-04T02:21:09.150Z,10.87
2018-11-04T02:23:39.149Z,10.91
2018-11-04T02:26:09.397Z,10.95
2018-11-04T02:28:39.924Z,10.91
2018-11-04T02:31:10.087Z,10.97
2018-11-04T02:33:39.930Z,10.95
2018-11-04T02:36:10.087Z,10.93
2018-11-04T02:38:41.018Z,10.95
2018-11-04T02:41:11.115Z,10.99
2018-11-04T02:43:41.107Z,10.95
2018-11-04T02:46:11.311Z,10.96
2018-11-04T02:48:41.409Z,10.93
2018-11-04T02:51:11.636Z,10.92
2018-11-04T02:53:41.831Z,10.87
2018-11-04T02:56:11.891Z,10.90
2018-11-04T02:58:42.179Z,10.92
2018-11-04T03:01:12.317Z,10.98
2018-11-04T03:03:43.473Z,10.95
2018-11-04T03:06:13.512Z,10.89
2018-11-04T03:08:43.619Z,10.92
2018-11-04T03:11:13.771Z,10.86
2018-11-04T03:13:43.862Z,10.97
2018-11-04T03:16:14.021Z,10.97
2018-11-04T03:18:44.034Z,10.86
2018-11-04T03:21:14.568Z,10.82
2018-11-04T03:23:44.993Z,10.83
2018-11-04T03:26:15.457Z,10.81
2018-11-04T03:28:45.702Z,10.79
2018-11-04T03:31:16.035Z,10.81
2018-11-04T03:33:46.074Z,10.79
2018-11-04T03:36:16.074Z,10.86
2018-11-04T03:38:46.300Z,10.86
2018-11-04T03:41:16.406Z,10.87
2018-11-04T03:43:47.086Z,10.90
2018-11-04T03:46:16.959Z,10.87
2018-11-04T03:48:47.112Z,10.87
2018-11-04T03:51:17.181Z,10.86
2018-11-04T03:53:47.552Z,10.93
2018-11-04T03:56:18.353Z,10.92
2018-11-04T03:58:48.891Z,10.93
2018-11-04T04:01:19.318Z,10.88
2018-11-04T04:03:49.550Z,10.92
2018-11-04T04:06:20.357Z,10.85
2018-11-04T04:08:51.027Z,10.94
2018-11-04T04:11:21.138Z,10.82
2018-11-04T04:13:51.271Z,10.84
2018-11-04T04:16:21.291Z,10.88
2018-11-04T04:18:51.814Z,10.97
2018-11-04T04:21:22.673Z,10.96
2018-11-04T04:23:53.237Z,10.83
2018-11-04T04:26:24.269Z,10.81
2018-11-04T04:28:55.681Z,10.83
2018-11-04T04:31:26.251Z,10.87
2018-11-04T04:33:57.377Z,10.83
2018-11-04T04:36:27.326Z,10.87
2018-11-04T04:38:58.772Z,10.80
2018-11-04T04:41:29.366Z,10.83
2018-11-04T04:44:01.601Z,10.85
2018-11-04T04:46:31.934Z,10.83
2018-11-04T04:49:02.690Z,10.80
2018-11-04T04:51:33.330Z,10.86
2018-11-04T04:54:04.377Z,10.86
2018-11-04T04:56:35.243Z,10.85
2018-11-04T04:59:06.313Z,10.86
2018-11-04T05:01:37.384Z,10.84
2018-11-04T05:04:11.018Z,10.80
2018-11-04T05:06:40.849Z,10.79
2018-11-04T05:09:10.772Z,10.84
2018-11-04T05:11:41.759Z,10.86
2018-11-04T05:14:12.426Z,10.87
2018-11-04T05:16:43.320Z,10.80
2018-11-04T05:19:14.295Z,10.83
2018-11-04T05:21:45.225Z,10.81
2018-11-04T05:24:16.275Z,10.87
2018-11-04T05:26:47.338Z,10.86
2018-11-04T05:29:18.218Z,10.87
2018-11-04T05:31:49.431Z,10.87
2018-11-04T05:34:20.147Z,10.85
2018-11-04T05:36:51.842Z,10.82
2018-11-04T05:39:23.589Z,10.76
2018-11-04T05:41:53.738Z,10.89
2018-11-04T05:44:24.326Z,10.91
2018-11-04T05:46:55.649Z,10.78
2018-11-04T05:49:26.364Z,10.82
2018-11-04T05:51:58.444Z,10.78
2018-11-04T05:54:28.390Z,10.91
2018-11-04T05:56:59.378Z,11.06
2018-11-04T05:59:30.151Z,11.00
2018-11-04T06:02:01.823Z,10.91
2018-11-04T06:04:32.653Z,10.93
2018-11-04T06:07:03.725Z,10.93
2018-11-04T06:09:34.452Z,10.91
2018-11-04T06:12:05.689Z,10.95
2018-11-04T06:14:35.704Z,10.92
2018-11-04T06:17:06.793Z,10.83
2018-11-04T06:19:37.705Z,10.90
2018-11-04T06:22:08.592Z,10.97
2018-11-04T06:24:39.384Z,10.93
2018-11-04T06:27:10.924Z,10.93
2018-11-04T06:29:41.481Z,10.82
2018-11-04T06:32:12.668Z,10.96
2018-11-04T06:34:43.627Z,11.02
2018-11-04T06:37:14.745Z,11.00
2018-11-04T06:39:45.458Z,10.99
2018-11-04T06:42:16.482Z,11.01
2018-11-04T06:44:47.311Z,11.02
2018-11-04T06:47:18.591Z,11.01
2018-11-04T06:49:49.278Z,11.02
2018-11-04T06:52:21.387Z,11.08
2018-11-04T06:54:51.260Z,11.01
2018-11-04T06:57:22.705Z,11.01
2018-11-04T06:59:53.722Z,11.06
2018-11-04T07:02:24.849Z,11.01
2018-11-04T07:04:55.738Z,11.01
2018-11-04T07:07:26.779Z,10.92
2018-11-04T07:09:57.658Z,10.96
2018-11-04T07:12:29.074Z,10.97
2018-11-04T07:14:59.760Z,10.99
2018-11-04T07:17:30.709Z,11.04
2018-11-04T07:20:01.845Z,11.03
2018-11-04T07:22:32.874Z,11.05
2018-11-04T07:25:03.710Z,11.08
2018-11-04T07:27:34.511Z,11.06
2018-11-04T07:30:06.129Z,11.14
2018-11-04T07:32:36.446Z,11.12
2018-11-04T07:35:09.921Z,11.19
2018-11-04T07:37:40.946Z,11.12
2018-11-04T07:40:11.534Z,11.10
2018-11-04T07:42:42.038Z,11.12
2018-11-04T07:45:11.840Z,11.11
2018-11-04T07:47:43.128Z,11.10
2018-11-04T07:50:15.469Z,11.13
2018-11-04T07:52:46.055Z,11.18
2018-11-04T07:55:15.988Z,11.18
2018-11-04T07:57:46.777Z,11.22
2018-11-04T08:00:17.887Z,11.27
2018-11-04T08:02:48.679Z,11.24
2018-11-04T08:05:19.482Z,11.23
2018-11-04T08:07:50.467Z,11.24
2018-11-04T08:10:21.116Z,11.25
2018-11-04T08:12:52.464Z,11.26
2018-11-04T08:15:23.232Z,11.28
2018-11-04T08:17:54.342Z,11.32
2018-11-04T08:20:25.345Z,11.35
2018-11-04T08:22:56.539Z,11.43
2018-11-04T08:25:27.177Z,11.38
2018-11-04T08:27:58.138Z,11.44
2018-11-04T08:30:29.536Z,11.48
2018-11-04T08:33:00.193Z,11.54
2018-11-04T08:35:31.196Z,11.52
2018-11-04T08:38:02.574Z,11.44
2018-11-04T08:40:44.262Z,11.26
2018-11-04T08:43:14.234Z,11.46
2018-11-04T08:45:44.091Z,11.46
2018-11-04T08:48:14.234Z,11.54
2018-11-04T08:50:44.071Z,11.54
2018-11-04T08:53:14.131Z,11.53
2018-11-04T08:55:44.084Z,11.54
2018-11-04T08:58:13.972Z,11.63
2018-11-04T09:00:44.003Z,11.64
2018-11-04T09:03:14.155Z,11.65
2018-11-04T09:05:44.204Z,11.63
2018-11-04T09:08:14.258Z,11.72
2018-11-04T09:10:45.074Z,11.80
2018-11-04T09:13:16.573Z,11.82
2018-11-04T09:15:47.222Z,11.87
2018-11-04T09:18:18.202Z,11.82
2018-11-04T09:20:49.090Z,11.81
2018-11-04T09:23:20.532Z,11.83
2018-11-04T09:25:51.106Z,11.85
2018-11-04T09:28:22.545Z,11.91
2018-11-04T09:30:53.206Z,11.87
2018-11-04T09:33:24.228Z,11.94
2018-11-04T09:35:55.273Z,11.99
2018-11-04T09:38:26.169Z,11.93
2018-11-04T09:40:57.040Z,11.90
2018-11-04T09:43:28.451Z,11.92
2018-11-04T09:45:59.065Z,11.85
2018-11-04T09:48:30.309Z,11.99
2018-11-04T09:51:00.970Z,11.93
2018-11-04T09:53:32.398Z,11.94
2018-11-04T09:56:02.930Z,12.04
2018-11-04T09:58:34.361Z,12.01
2018-11-04T10:01:04.896Z,11.99
2018-11-04T10:03:36.441Z,11.99
2018-11-04T10:06:06.951Z,12.00
2018-11-04T10:08:38.465Z,11.95
2018-11-04T10:11:08.997Z,12.00
2018-11-04T10:13:40.378Z,12.00
2018-11-04T10:16:11.329Z,11.90
2018-11-04T10:18:42.356Z,11.93
2018-11-04T10:21:13.324Z,11.92
2018-11-04T10:23:44.061Z,11.94
2018-11-04T10:26:15.213Z,11.98
2018-11-04T10:28:46.456Z,12.05
2018-11-04T10:31:16.257Z,12.19
2018-11-04T10:33:47.082Z,12.07
2018-11-04T10:36:18.599Z,12.07
2018-11-04T10:38:49.483Z,12.09
2018-11-04T10:41:19.989Z,11.99
2018-11-04T10:43:52.211Z,11.99
2018-11-04T10:46:21.979Z,12.03
2018-11-04T10:48:53.405Z,12.04
2018-11-04T10:51:23.946Z,12.15
2018-11-04T10:53:55.553Z,12.14
2018-11-04T10:56:26.026Z,12.17
2018-11-04T10:58:57.250Z,12.11
2018-11-04T11:01:28.011Z,12.16
2018-11-04T11:03:59.572Z,12.14
2018-11-04T11:06:29.987Z,12.19
2018-11-04T11:09:01.561Z,12.21
2018-11-04T11:11:32.025Z,12.12
2018-11-04T11:14:03.415Z,12.14
2018-11-04T11:16:33.927Z,12.16
2018-11-04T11:19:05.498Z,12.20
2018-11-04T11:21:36.025Z,12.24
2018-11-04T11:24:07.535Z,12.28
2018-11-04T11:26:38.147Z,12.22
2018-11-04T11:29:09.117Z,12.28
2018-11-04T11:31:40.258Z,12.32
2018-11-04T11:34:11.325Z,12.23
2018-11-04T11:36:42.125Z,12.23
2018-11-04T11:39:14.515Z,12.27
2018-11-04T11:41:44.712Z,12.22
2018-11-04T11:44:15.433Z,12.22
2018-11-04T11:46:46.210Z,12.23
2018-11-04T11:49:17.374Z,12.25
2018-11-04T11:51:47.975Z,12.28
2018-11-04T11:54:19.589Z,12.25
2018-11-04T11:56:50.036Z,12.33
2018-11-04T11:59:22.070Z,12.39
2018-11-04T12:01:52.039Z,12.38
2018-11-04T12:04:23.420Z,12.36
2018-11-04T12:06:53.994Z,12.38
2018-11-04T12:09:25.674Z,12.39
2018-11-04T12:11:56.753Z,12.35
2018-11-04T12:14:27.346Z,12.45
2018-11-04T12:16:57.986Z,12.40
2018-11-04T12:19:29.592Z,12.41
2018-11-04T12:22:00.100Z,12.41
2018-11-04T12:24:31.539Z,12.41
2018-11-04T12:27:02.073Z,12.39
2018-11-04T12:29:33.598Z,12.44
2018-11-04T12:32:04.528Z,12.39
2018-11-04T12:34:35.097Z,12.48
2018-11-04T12:37:06.001Z,12.51
2018-11-04T12:39:37.438Z,12.51
2018-11-04T12:42:08.078Z,12.44
2018-11-04T12:44:39.460Z,12.46
2018-11-04T12:47:10.145Z,12.53
2018-11-04T12:49:41.181Z,12.52
2018-11-04T12:52:12.083Z,12.54
2018-11-04T12:54:43.269Z,12.47
2018-11-04T12:57:13.899Z,12.56
2018-11-04T12:59:45.442Z,12.48
2018-11-04T13:02:15.973Z,12.49
2018-11-04T13:04:47.472Z,12.54
2018-11-04T13:07:17.944Z,12.48
2018-11-04T13:09:49.487Z,12.51
2018-11-04T13:12:19.977Z,12.54
2018-11-04T13:14:51.557Z,12.52
2018-11-04T13:17:22.032Z,12.60
2018-11-04T13:19:53.417Z,12.65
2018-11-04T13:22:24.017Z,12.59
2018-11-04T13:24:55.443Z,12.57
2018-11-04T13:27:26.016Z,12.55
2018-11-04T13:29:57.658Z,12.57
2018-11-04T13:32:28.250Z,12.50
2018-11-04T13:34:59.215Z,12.56
2018-11-04T13:37:30.053Z,12.58
2018-11-04T13:40:01.437Z,12.60
2018-11-04T13:42:32.132Z,12.64
2018-11-04T13:45:03.228Z,12.62
2018-11-04T13:47:34.060Z,12.66
2018-11-04T13:50:05.833Z,12.63
2018-11-04T13:52:36.291Z,12.56
2018-11-04T13:55:07.746Z,12.59
2018-11-04T13:57:38.552Z,12.61
2018-11-04T14:00:13.270Z,12.64
2018-11-04T14:02:44.316Z,12.60
2018-11-04T14:05:15.012Z,12.64
2018-11-04T14:07:44.785Z,12.58
2018-11-04T14:10:16.456Z,12.65
2018-11-04T14:12:46.773Z,12.61
2018-11-04T14:15:17.422Z,12.70
2018-11-04T14:17:47.825Z,12.64
2018-11-04T14:20:17.849Z,12.68
2018-11-04T14:22:48.453Z,12.56
2018-11-04T14:25:19.009Z,12.54
2018-11-04T14:27:50.640Z,12.48
2018-11-04T14:30:21.223Z,12.50
2018-11-04T14:32:52.098Z,12.41
2018-11-04T14:35:23.362Z,12.43
2018-11-04T14:37:54.440Z,12.56
2018-11-04T14:40:25.015Z,12.42
2018-11-04T14:42:56.763Z,12.40
2018-11-04T14:45:27.485Z,12.48
2018-11-04T14:47:58.861Z,12.49
2018-11-04T14:50:29.462Z,12.45
2018-11-04T14:53:00.373Z,12.42
2018-11-04T14:55:31.182Z,12.33
2018-11-04T14:58:02.284Z,12.45
2018-11-04T15:00:36.577Z,12.45
2018-11-04T15:03:08.677Z,12.47
2018-11-04T15:05:39.151Z,12.47
2018-11-04T15:08:10.119Z,12.45
2018-11-04T15:10:41.104Z,12.52
2018-11-04T15:13:11.202Z,12.45
2018-11-04T15:15:41.056Z,12.45
2018-11-04T15:18:11.151Z,12.44
2018-11-04T15:20:42.494Z,12.34
2018-11-04T15:23:12.602Z,12.33
2018-11-04T15:25:43.523Z,12.43
2018-11-04T15:28:14.145Z,12.35
2018-11-04T15:30:45.419Z,12.41
2018-11-04T15:33:16.181Z,12.35
2018-11-04T15:35:47.800Z,12.25
2018-11-04T15:38:18.470Z,12.30
2018-11-04T15:40:49.392Z,12.31
2018-11-04T15:43:21.101Z,12.39
2018-11-04T15:45:51.183Z,12.33
2018-11-04T15:48:22.074Z,12.31
2018-11-04T15:50:54.322Z,12.31
2018-11-04T15:53:24.487Z,12.30
2018-11-04T15:55:55.502Z,12.29
2018-11-04T15:58:26.126Z,12.19
2018-11-04T16:00:57.245Z,12.32
2018-11-04T16:03:28.850Z,12.28
2018-11-04T16:05:59.972Z,12.36
2018-11-04T16:08:30.959Z,12.40
2018-11-04T16:11:01.895Z,12.41
2018-11-04T16:13:32.425Z,12.37
2018-11-04T16:16:03.420Z,12.39
2018-11-04T16:18:34.103Z,12.32
2018-11-04T16:21:05.336Z,12.39
2018-11-04T16:23:36.262Z,12.27
2018-11-04T16:26:07.337Z,12.33
2018-11-04T16:28:38.069Z,12.32
2018-11-04T16:31:09.626Z,12.21
2018-11-04T16:33:40.572Z,12.27
2018-11-04T16:36:11.460Z,12.26
2018-11-04T16:38:42.194Z,12.19
2018-11-04T16:41:13.505Z,12.22
2018-11-04T16:43:44.465Z,12.19
2018-11-04T16:46:15.651Z,12.19
2018-11-04T16:48:46.401Z,12.19
2018-11-04T16:51:17.256Z,12.19
2018-11-04T16:53:48.190Z,12.29
2018-11-04T16:56:19.821Z,12.32
2018-11-04T16:58:50.492Z,12.32
2018-11-04T17:01:21.409Z,12.38
2018-11-04T17:03:52.300Z,12.24
2018-11-04T17:06:23.476Z,12.26
2018-11-04T17:08:56.140Z,12.29
2018-11-04T17:11:26.548Z,12.32
2018-11-04T17:13:56.865Z,12.28
2018-11-04T17:16:27.857Z,12.32
2018-11-04T17:18:58.731Z,12.33
2018-11-04T17:21:31.225Z,12.35
2018-11-04T17:24:02.410Z,12.33
2018-11-04T17:26:34.319Z,12.33
2018-11-04T17:29:09.416Z,12.35
2018-11-04T17:31:41.620Z,12.28
2018-11-04T17:34:13.723Z,12.24
2018-11-04T17:36:46.045Z,12.24
2018-11-04T17:39:17.614Z,12.31
2018-11-04T17:41:49.806Z,12.26
2018-11-04T17:44:21.780Z,12.31
2018-11-04T17:46:54.087Z,12.30
2018-11-04T17:49:26.714Z,12.31
2018-11-04T17:51:59.895Z,12.28
2018-11-04T17:54:31.714Z,12.25
2018-11-04T17:57:03.250Z,12.29
2018-11-04T17:59:35.287Z,12.33
2018-11-04T18:02:06.680Z,12.33
2018-11-04T18:04:39.774Z,12.28
2018-11-04T18:07:11.201Z,12.32
2018-11-04T18:09:42.500Z,12.30
2018-11-04T18:12:14.151Z,12.26
2018-11-04T18:14:46.257Z,12.24
2018-11-04T18:17:18.400Z,12.28
2018-11-04T18:19:49.716Z,12.22
2018-11-04T18:22:21.536Z,12.36
2018-11-04T18:24:53.247Z,12.33
2018-11-04T18:27:26.255Z,12.28
2018-11-04T18:29:59.323Z,12.32
2018-11-04T18:32:32.192Z,12.33
2018-11-04T18:35:05.244Z,12.30
2018-11-04T18:37:37.171Z,12.32
2018-11-04T18:40:12.407Z,12.31
2018-11-04T18:42:46.022Z,12.33
2018-11-04T18:45:18.601Z,12.38
2018-11-04T18:47:51.493Z,12.34
2018-11-04T18:50:24.613Z,12.36
2018-11-04T18:52:56.829Z,12.36
2018-11-04T18:55:29.353Z,12.33
2018-11-04T18:58:02.182Z,12.35
2018-11-04T19:00:35.613Z,12.31
2018-11-04T19:03:09.317Z,12.40
2018-11-04T19:05:43.149Z,12.36
2018-11-04T19:08:16.328Z,12.38
2018-11-04T19:10:48.893Z,12.29
2018-11-04T19:13:20.968Z,12.28
2018-11-04T19:15:54.514Z,12.32
2018-11-04T19:18:26.791Z,12.11
2018-11-04T19:20:58.880Z,12.26
2018-11-04T19:23:30.724Z,12.25
2018-11-04T19:26:02.508Z,12.21
2018-11-04T19:28:35.080Z,12.27
2018-11-04T19:31:06.179Z,12.20
2018-11-04T19:33:37.866Z,12.24
2018-11-04T19:36:09.612Z,12.19
2018-11-04T19:38:40.732Z,12.13
2018-11-04T19:41:12.578Z,12.20
2018-11-04T19:43:44.575Z,12.11
2018-11-04T19:46:16.052Z,12.15
2018-11-04T19:48:48.185Z,12.27
2018-11-04T19:51:19.677Z,12.24
2018-11-04T19:53:51.392Z,12.27
2018-11-04T19:56:23.524Z,12.36
2018-11-04T19:58:55.193Z,12.35
2018-11-04T20:01:27.490Z,12.29
2018-11-04T20:04:06.218Z,12.31
2018-11-04T20:06:38.035Z,12.25
2018-11-04T20:09:15.674Z,12.15
2018-11-04T20:11:48.312Z,12.32
2018-11-04T20:14:23.227Z,12.28
2018-11-04T20:16:56.195Z,12.34
2018-11-04T20:19:33.248Z,12.36
2018-11-04T20:22:05.881Z,12.33
2018-11-04T20:24:41.993Z,12.30
2018-11-04T20:27:13.521Z,12.43
2018-11-04T20:29:45.214Z,12.42
2018-11-04T20:32:21.553Z,12.31
2018-11-04T20:34:52.878Z,12.26
2018-11-04T20:37:24.039Z,12.30
2018-11-04T20:39:59.951Z,12.35
2018-11-04T20:42:31.655Z,12.27
2018-11-04T20:45:03.606Z,12.25
2018-11-04T20:47:39.419Z,12.33
2018-11-04T20:50:15.026Z,12.27
2018-11-04T20:52:45.056Z,12.28
2018-11-04T20:55:15.101Z,12.28
2018-11-04T20:57:48.099Z,12.42
2018-11-04T21:00:18.320Z,12.45
2018-11-04T21:02:48.282Z,12.41
2018-11-04T21:05:18.189Z,12.32
2018-11-04T21:07:48.083Z,12.30
2018-11-04T21:10:19.752Z,12.35
2018-11-04T21:12:49.559Z,12.37
2018-11-04T21:15:19.650Z,12.32
2018-11-04T21:17:49.661Z,12.30
2018-11-04T21:20:19.945Z,12.21
2018-11-04T21:22:49.968Z,12.20
2018-11-04T21:25:20.200Z,12.27
2018-11-04T21:27:50.646Z,12.36
2018-11-04T21:30:20.907Z,12.27
2018-11-04T21:32:51.042Z,12.32
2018-11-04T21:35:20.981Z,12.26
2018-11-04T21:37:50.972Z,12.28
2018-11-04T21:40:21.202Z,12.25
2018-11-04T21:42:51.266Z,12.15
2018-11-04T21:45:21.281Z,12.27
2018-11-04T21:47:51.200Z,12.33
2018-11-04T21:50:21.058Z,12.25
2018-11-04T21:52:50.896Z,12.26
2018-11-04T21:55:20.988Z,12.22
2018-11-04T21:57:50.899Z,12.11
2018-11-04T22:00:20.874Z,12.18
2018-11-04T22:02:50.740Z,12.20
2018-11-04T22:05:20.771Z,12.12
2018-11-04T22:07:54.081Z,12.22
2018-11-04T22:10:24.005Z,12.18
2018-11-04T22:12:53.752Z,12.06
2018-11-04T22:15:23.597Z,12.04
2018-11-04T22:17:53.577Z,12.16
2018-11-04T22:20:23.532Z,12.21
2018-11-04T22:22:53.677Z,12.15
2018-11-04T22:25:23.566Z,12.11
2018-11-04T22:27:53.625Z,12.19
2018-11-04T22:30:23.746Z,12.13
2018-11-04T22:32:55.568Z,12.10
2018-11-04T22:35:25.817Z,12.15
2018-11-04T22:37:55.573Z,12.23
2018-11-04T22:40:25.601Z,12.25
2018-11-04T22:42:55.560Z,12.13
2018-11-04T22:45:25.502Z,12.10
2018-11-04T22:47:55.890Z,12.05
2018-11-04T22:50:25.678Z,12.07
2018-11-04T22:52:55.620Z,12.10
2018-11-04T22:55:26.064Z,12.07
2018-11-04T22:57:59.779Z,12.10
2018-11-04T23:00:34.834Z,12.17
2018-11-04T23:03:04.614Z,12.14
2018-11-04T23:05:34.681Z,12.18
2018-11-04T23:08:05.108Z,12.18
2018-11-04T23:10:34.997Z,12.17
2018-11-04T23:13:05.092Z,12.19
2018-11-04T23:15:34.893Z,12.13
2018-11-04T23:18:04.724Z,12.14
2018-11-04T23:20:34.617Z,12.07
2018-11-04T23:23:04.708Z,12.04
2018-11-04T23:25:34.787Z,12.12
2018-11-04T23:28:04.539Z,12.04
2018-11-04T23:30:34.706Z,12.05
2018-11-04T23:33:04.732Z,12.10
2018-11-04T23:35:34.580Z,12.08
2018-11-04T23:38:04.672Z,12.14
2018-11-04T23:40:34.965Z,12.08
2018-11-04T23:43:04.918Z,12.06
2018-11-04T23:45:34.740Z,12.03
2018-11-04T23:48:04.561Z,12.03
2018-11-04T23:50:35.433Z,11.98
2018-11-04T23:53:05.637Z,12.00
2018-11-04T23:55:35.847Z,11.94
2018-11-04T23:58:05.778Z,11.92
